sensor_id;sensor_type;location;lat;lon;timestamp;temperature;humidity
20442;DHT22;10380;52.102;20.614;2022-09-09T00:04:37;13.50;99.90
20442;DHT22;10380;52.102;20.614;2022-09-09T00:12:40;13.50;99.90
20442;DHT22;10380;52.102;20.614;2022-09-09T00:15:19;13.50;99.90
20442;DHT22;10380;52.102;20.614;2022-09-09T00:23:32;13.50;99.90
20442;DHT22;10380;52.102;20.614;2022-09-09T00:26:03;13.50;99.90
20442;DHT22;10380;52.102;20.614;2022-09-09T00:28:39;13.50;99.90
20442;DHT22;10380;52.102;20.614;2022-09-09T00:31:23;13.50;99.90
20442;DHT22;10380;52.102;20.614;2022-09-09T00:34:24;13.50;99.90
20442;DHT22;10380;52.102;20.614;2022-09-09T00:36:55;13.40;99.90
20442;DHT22;10380;52.102;20.614;2022-09-09T00:39:45;13.40;99.90
20442;DHT22;10380;52.102;20.614;2022-09-09T00:42:23;13.40;99.90
20442;DHT22;10380;52.102;20.614;2022-09-09T00:45:11;13.40;99.90
20442;DHT22;10380;52.102;20.614;2022-09-09T00:47:51;13.40;99.90
20442;DHT22;10380;52.102;20.614;2022-09-09T00:56:39;13.40;99.90
20442;DHT22;10380;52.102;20.614;2022-09-09T00:59:42;13.40;99.90
20442;DHT22;10380;52.102;20.614;2022-09-09T01:02:28;13.40;99.90
20442;DHT22;10380;52.102;20.614;2022-09-09T01:05:15;13.40;99.90
20442;DHT22;10380;52.102;20.614;2022-09-09T01:07:48;13.40;99.90
20442;DHT22;10380;52.102;20.614;2022-09-09T01:10:33;13.40;99.90
20442;DHT22;10380;52.102;20.614;2022-09-09T01:13:08;13.50;99.90
20442;DHT22;10380;52.102;20.614;2022-09-09T01:15:48;13.40;99.90
20442;DHT22;10380;52.102;20.614;2022-09-09T01:18:23;13.50;99.90
20442;DHT22;10380;52.102;20.614;2022-09-09T01:26:56;13.50;99.90
20442;DHT22;10380;52.102;20.614;2022-09-09T01:29:28;13.40;99.90
20442;DHT22;10380;52.102;20.614;2022-09-09T01:34:50;13.40;99.90
20442;DHT22;10380;52.102;20.614;2022-09-09T01:37:26;13.40;99.90
20442;DHT22;10380;52.102;20.614;2022-09-09T01:39:53;13.30;99.90
20442;DHT22;10380;52.102;20.614;2022-09-09T01:42:27;13.40;99.90
20442;DHT22;10380;52.102;20.614;2022-09-09T01:44:54;13.30;99.90
20442;DHT22;10380;52.102;20.614;2022-09-09T01:47:24;13.40;99.90
20442;DHT22;10380;52.102;20.614;2022-09-09T01:49:52;13.40;99.90
20442;DHT22;10380;52.102;20.614;2022-09-09T01:52:19;13.30;99.90
20442;DHT22;10380;52.102;20.614;2022-09-09T01:54:47;13.40;99.90
20442;DHT22;10380;52.102;20.614;2022-09-09T01:57:40;13.40;99.90
20442;DHT22;10380;52.102;20.614;2022-09-09T02:00:10;13.40;99.90
20442;DHT22;10380;52.102;20.614;2022-09-09T02:05:37;13.40;99.90
20442;DHT22;10380;52.102;20.614;2022-09-09T02:08:17;13.40;99.90
20442;DHT22;10380;52.102;20.614;2022-09-09T02:13:15;13.40;99.90
20442;DHT22;10380;52.102;20.614;2022-09-09T02:21:28;13.40;99.90
20442;DHT22;10380;52.102;20.614;2022-09-09T02:23:59;13.40;99.90
20442;DHT22;10380;52.102;20.614;2022-09-09T02:26:30;13.40;99.90
20442;DHT22;10380;52.102;20.614;2022-09-09T02:29:01;13.40;99.90
20442;DHT22;10380;52.102;20.614;2022-09-09T02:31:34;13.40;99.90
20442;DHT22;10380;52.102;20.614;2022-09-09T02:34:05;13.30;99.90
20442;DHT22;10380;52.102;20.614;2022-09-09T02:36:36;13.40;99.90
20442;DHT22;10380;52.102;20.614;2022-09-09T02:39:05;13.40;99.90
20442;DHT22;10380;52.102;20.614;2022-09-09T02:41:38;13.40;99.90
20442;DHT22;10380;52.102;20.614;2022-09-09T02:44:15;13.40;99.90
20442;DHT22;10380;52.102;20.614;2022-09-09T02:55:39;13.40;99.90
20442;DHT22;10380;52.102;20.614;2022-09-09T02:58:15;13.40;99.90
20442;DHT22;10380;52.102;20.614;2022-09-09T03:00:55;13.40;99.90
20442;DHT22;10380;52.102;20.614;2022-09-09T03:03:24;13.40;99.90
20442;DHT22;10380;52.102;20.614;2022-09-09T03:05:52;13.40;99.90
20442;DHT22;10380;52.102;20.614;2022-09-09T03:08:21;13.40;99.90
20442;DHT22;10380;52.102;20.614;2022-09-09T03:10:49;13.50;99.90
20442;DHT22;10380;52.102;20.614;2022-09-09T03:13:18;13.50;99.90
20442;DHT22;10380;52.102;20.614;2022-09-09T03:15:47;13.50;99.90
20442;DHT22;10380;52.102;20.614;2022-09-09T03:18:15;13.50;99.90
20442;DHT22;10380;52.102;20.614;2022-09-09T03:20:44;13.50;99.90
20442;DHT22;10380;52.102;20.614;2022-09-09T03:23:13;13.50;99.90
20442;DHT22;10380;52.102;20.614;2022-09-09T03:25:50;13.50;99.90
20442;DHT22;10380;52.102;20.614;2022-09-09T03:28:18;13.50;99.90
20442;DHT22;10380;52.102;20.614;2022-09-09T03:30:46;13.40;99.90
20442;DHT22;10380;52.102;20.614;2022-09-09T03:33:13;13.40;99.90
20442;DHT22;10380;52.102;20.614;2022-09-09T03:35:46;13.50;99.90
20442;DHT22;10380;52.102;20.614;2022-09-09T03:38:22;13.50;99.90
20442;DHT22;10380;52.102;20.614;2022-09-09T03:40:52;13.50;99.90
20442;DHT22;10380;52.102;20.614;2022-09-09T03:43:26;13.50;99.90
20442;DHT22;10380;52.102;20.614;2022-09-09T03:45:54;13.50;99.90
20442;DHT22;10380;52.102;20.614;2022-09-09T03:48:25;13.50;99.90
20442;DHT22;10380;52.102;20.614;2022-09-09T03:51:03;13.50;99.90
20442;DHT22;10380;52.102;20.614;2022-09-09T03:53:33;13.50;99.90
20442;DHT22;10380;52.102;20.614;2022-09-09T03:56:02;13.50;99.90
20442;DHT22;10380;52.102;20.614;2022-09-09T03:58:36;13.60;99.90
20442;DHT22;10380;52.102;20.614;2022-09-09T04:01:07;13.50;99.90
20442;DHT22;10380;52.102;20.614;2022-09-09T04:03:37;13.50;99.90
20442;DHT22;10380;52.102;20.614;2022-09-09T04:06:06;13.50;99.90
20442;DHT22;10380;52.102;20.614;2022-09-09T04:08:35;13.60;99.90
20442;DHT22;10380;52.102;20.614;2022-09-09T04:11:03;13.60;99.90
20442;DHT22;10380;52.102;20.614;2022-09-09T04:13:34;13.60;99.90
20442;DHT22;10380;52.102;20.614;2022-09-09T04:16:03;13.60;99.90
20442;DHT22;10380;52.102;20.614;2022-09-09T04:18:33;13.60;99.90
20442;DHT22;10380;52.102;20.614;2022-09-09T04:21:09;13.60;99.90
20442;DHT22;10380;52.102;20.614;2022-09-09T04:23:43;13.60;99.90
20442;DHT22;10380;52.102;20.614;2022-09-09T04:26:14;13.60;99.90
20442;DHT22;10380;52.102;20.614;2022-09-09T04:28:47;13.50;99.90
20442;DHT22;10380;52.102;20.614;2022-09-09T04:31:22;13.60;99.90
20442;DHT22;10380;52.102;20.614;2022-09-09T04:33:52;13.50;99.90
20442;DHT22;10380;52.102;20.614;2022-09-09T04:36:19;13.50;99.90
20442;DHT22;10380;52.102;20.614;2022-09-09T04:38:49;13.50;99.90
20442;DHT22;10380;52.102;20.614;2022-09-09T04:41:17;13.60;99.90
20442;DHT22;10380;52.102;20.614;2022-09-09T04:43:44;13.60;99.90
20442;DHT22;10380;52.102;20.614;2022-09-09T04:46:11;13.60;99.90
20442;DHT22;10380;52.102;20.614;2022-09-09T04:48:39;13.60;99.90
20442;DHT22;10380;52.102;20.614;2022-09-09T04:51:09;13.50;99.90
20442;DHT22;10380;52.102;20.614;2022-09-09T04:53:38;13.60;99.90
20442;DHT22;10380;52.102;20.614;2022-09-09T04:56:11;13.60;99.90
20442;DHT22;10380;52.102;20.614;2022-09-09T04:58:41;13.60;99.90
20442;DHT22;10380;52.102;20.614;2022-09-09T05:01:18;13.60;99.90
20442;DHT22;10380;52.102;20.614;2022-09-09T05:03:46;13.60;99.90
20442;DHT22;10380;52.102;20.614;2022-09-09T05:06:20;13.60;99.90
20442;DHT22;10380;52.102;20.614;2022-09-09T05:08:47;13.60;99.90
20442;DHT22;10380;52.102;20.614;2022-09-09T05:11:21;13.70;99.90
20442;DHT22;10380;52.102;20.614;2022-09-09T05:13:52;13.70;99.90
20442;DHT22;10380;52.102;20.614;2022-09-09T05:16:25;13.70;99.90
20442;DHT22;10380;52.102;20.614;2022-09-09T05:18:53;13.70;99.90
20442;DHT22;10380;52.102;20.614;2022-09-09T05:21:22;13.70;99.90
20442;DHT22;10380;52.102;20.614;2022-09-09T05:23:50;13.80;99.90
20442;DHT22;10380;52.102;20.614;2022-09-09T05:26:20;13.80;99.90
20442;DHT22;10380;52.102;20.614;2022-09-09T05:28:47;13.80;99.90
20442;DHT22;10380;52.102;20.614;2022-09-09T05:31:16;13.80;99.90
20442;DHT22;10380;52.102;20.614;2022-09-09T05:33:46;13.80;99.90
20442;DHT22;10380;52.102;20.614;2022-09-09T05:36:19;13.80;99.90
20442;DHT22;10380;52.102;20.614;2022-09-09T05:38:48;13.80;99.90
20442;DHT22;10380;52.102;20.614;2022-09-09T05:41:16;13.80;99.90
20442;DHT22;10380;52.102;20.614;2022-09-09T05:43:45;13.80;99.90
20442;DHT22;10380;52.102;20.614;2022-09-09T05:46:18;13.90;99.90
20442;DHT22;10380;52.102;20.614;2022-09-09T05:48:47;13.80;99.90
20442;DHT22;10380;52.102;20.614;2022-09-09T05:51:18;13.80;99.90
20442;DHT22;10380;52.102;20.614;2022-09-09T05:53:46;13.80;99.90
20442;DHT22;10380;52.102;20.614;2022-09-09T05:56:18;13.80;99.90
20442;DHT22;10380;52.102;20.614;2022-09-09T05:58:46;13.90;99.90
20442;DHT22;10380;52.102;20.614;2022-09-09T06:01:22;13.90;99.90
20442;DHT22;10380;52.102;20.614;2022-09-09T06:03:51;13.90;99.90
20442;DHT22;10380;52.102;20.614;2022-09-09T06:06:21;13.90;99.90
20442;DHT22;10380;52.102;20.614;2022-09-09T06:08:51;13.90;99.90
20442;DHT22;10380;52.102;20.614;2022-09-09T06:11:24;13.90;99.90
20442;DHT22;10380;52.102;20.614;2022-09-09T06:13:51;14.00;99.90
20442;DHT22;10380;52.102;20.614;2022-09-09T06:16:22;14.00;99.90
20442;DHT22;10380;52.102;20.614;2022-09-09T06:18:51;14.00;99.90
20442;DHT22;10380;52.102;20.614;2022-09-09T06:23:47;14.00;99.90
20442;DHT22;10380;52.102;20.614;2022-09-09T06:26:17;14.00;99.90
20442;DHT22;10380;52.102;20.614;2022-09-09T06:28:47;14.10;99.90
20442;DHT22;10380;52.102;20.614;2022-09-09T06:31:17;14.10;99.90
20442;DHT22;10380;52.102;20.614;2022-09-09T06:33:44;14.10;99.90
20442;DHT22;10380;52.102;20.614;2022-09-09T06:36:16;14.10;99.90
20442;DHT22;10380;52.102;20.614;2022-09-09T06:38:45;14.20;99.90
20442;DHT22;10380;52.102;20.614;2022-09-09T06:41:14;14.20;99.90
20442;DHT22;10380;52.102;20.614;2022-09-09T06:43:42;14.30;99.90
20442;DHT22;10380;52.102;20.614;2022-09-09T06:46:17;14.40;99.90
20442;DHT22;10380;52.102;20.614;2022-09-09T06:48:46;14.40;99.90
20442;DHT22;10380;52.102;20.614;2022-09-09T06:51:16;14.40;99.90
20442;DHT22;10380;52.102;20.614;2022-09-09T06:53:52;14.50;99.90
20442;DHT22;10380;52.102;20.614;2022-09-09T06:56:32;14.50;99.90
20442;DHT22;10380;52.102;20.614;2022-09-09T06:59:02;14.60;99.90
20442;DHT22;10380;52.102;20.614;2022-09-09T07:01:33;14.70;99.90
20442;DHT22;10380;52.102;20.614;2022-09-09T07:04:02;14.80;99.90
20442;DHT22;10380;52.102;20.614;2022-09-09T07:06:36;14.90;99.90
20442;DHT22;10380;52.102;20.614;2022-09-09T07:09:08;15.00;99.90
20442;DHT22;10380;52.102;20.614;2022-09-09T07:11:44;15.10;99.90
20442;DHT22;10380;52.102;20.614;2022-09-09T07:14:12;15.20;99.90
20442;DHT22;10380;52.102;20.614;2022-09-09T07:16:44;15.20;99.90
20442;DHT22;10380;52.102;20.614;2022-09-09T07:19:13;15.30;99.90
20442;DHT22;10380;52.102;20.614;2022-09-09T07:21:41;15.40;99.90
20442;DHT22;10380;52.102;20.614;2022-09-09T07:24:09;15.40;99.90
20442;DHT22;10380;52.102;20.614;2022-09-09T07:26:39;15.50;99.90
20442;DHT22;10380;52.102;20.614;2022-09-09T07:29:06;15.60;99.90
20442;DHT22;10380;52.102;20.614;2022-09-09T07:31:36;15.60;99.90
20442;DHT22;10380;52.102;20.614;2022-09-09T07:34:04;15.60;99.90
20442;DHT22;10380;52.102;20.614;2022-09-09T07:36:33;15.60;99.90
20442;DHT22;10380;52.102;20.614;2022-09-09T07:39:04;15.70;99.90
20442;DHT22;10380;52.102;20.614;2022-09-09T07:41:38;15.70;99.90
20442;DHT22;10380;52.102;20.614;2022-09-09T07:44:09;15.70;99.90
20442;DHT22;10380;52.102;20.614;2022-09-09T07:46:38;15.80;99.90
20442;DHT22;10380;52.102;20.614;2022-09-09T07:49:09;15.80;99.90
20442;DHT22;10380;52.102;20.614;2022-09-09T07:51:39;15.80;99.90
20442;DHT22;10380;52.102;20.614;2022-09-09T07:54:09;15.80;99.90
20442;DHT22;10380;52.102;20.614;2022-09-09T07:56:38;15.90;99.90
20442;DHT22;10380;52.102;20.614;2022-09-09T07:59:06;15.80;99.90
20442;DHT22;10380;52.102;20.614;2022-09-09T08:01:36;15.80;99.90
20442;DHT22;10380;52.102;20.614;2022-09-09T08:04:17;15.80;99.90
20442;DHT22;10380;52.102;20.614;2022-09-09T08:06:47;15.80;99.90
20442;DHT22;10380;52.102;20.614;2022-09-09T08:09:15;15.80;99.90
20442;DHT22;10380;52.102;20.614;2022-09-09T08:11:43;15.80;99.90
20442;DHT22;10380;52.102;20.614;2022-09-09T08:14:11;15.80;99.90
20442;DHT22;10380;52.102;20.614;2022-09-09T08:16:43;15.90;99.90
20442;DHT22;10380;52.102;20.614;2022-09-09T08:19:11;15.90;99.90
20442;DHT22;10380;52.102;20.614;2022-09-09T08:21:40;16.00;99.90
20442;DHT22;10380;52.102;20.614;2022-09-09T08:24:08;16.10;99.90
20442;DHT22;10380;52.102;20.614;2022-09-09T08:26:39;16.10;99.90
20442;DHT22;10380;52.102;20.614;2022-09-09T08:29:09;16.20;99.90
20442;DHT22;10380;52.102;20.614;2022-09-09T08:31:56;16.30;99.90
20442;DHT22;10380;52.102;20.614;2022-09-09T08:34:25;16.30;99.90
20442;DHT22;10380;52.102;20.614;2022-09-09T08:36:54;16.40;99.90
20442;DHT22;10380;52.102;20.614;2022-09-09T08:39:21;16.50;99.90
20442;DHT22;10380;52.102;20.614;2022-09-09T08:50:41;16.80;99.90
20442;DHT22;10380;52.102;20.614;2022-09-09T08:55:57;16.90;99.90
20442;DHT22;10380;52.102;20.614;2022-09-09T08:58:30;16.90;99.90
20442;DHT22;10380;52.102;20.614;2022-09-09T09:06:29;16.80;99.90
20442;DHT22;10380;52.102;20.614;2022-09-09T09:12:00;16.90;99.90
20442;DHT22;10380;52.102;20.614;2022-09-09T09:14:30;17.00;99.90
20442;DHT22;10380;52.102;20.614;2022-09-09T09:17:11;17.10;99.90
20442;DHT22;10380;52.102;20.614;2022-09-09T09:19:41;17.10;99.90
20442;DHT22;10380;52.102;20.614;2022-09-09T09:22:27;17.20;99.90
20442;DHT22;10380;52.102;20.614;2022-09-09T09:25:18;17.20;99.90
20442;DHT22;10380;52.102;20.614;2022-09-09T09:30:52;17.20;99.90
20442;DHT22;10380;52.102;20.614;2022-09-09T09:35:50;17.20;99.90
20442;DHT22;10380;52.102;20.614;2022-09-09T09:38:25;17.30;99.90
20442;DHT22;10380;52.102;20.614;2022-09-09T09:41:13;17.30;99.90
20442;DHT22;10380;52.102;20.614;2022-09-09T09:43:41;17.40;99.90
20442;DHT22;10380;52.102;20.614;2022-09-09T09:46:20;17.50;99.90
20442;DHT22;10380;52.102;20.614;2022-09-09T09:51:25;17.70;99.90
20442;DHT22;10380;52.102;20.614;2022-09-09T09:53:53;17.70;99.90
20442;DHT22;10380;52.102;20.614;2022-09-09T09:56:28;17.80;99.90
20442;DHT22;10380;52.102;20.614;2022-09-09T09:58:59;17.90;99.90
20442;DHT22;10380;52.102;20.614;2022-09-09T10:01:35;18.00;99.90
20442;DHT22;10380;52.102;20.614;2022-09-09T10:04:16;18.10;99.90
20442;DHT22;10380;52.102;20.614;2022-09-09T10:06:45;18.10;99.90
20442;DHT22;10380;52.102;20.614;2022-09-09T10:09:31;18.10;99.90
20442;DHT22;10380;52.102;20.614;2022-09-09T10:17:25;18.00;99.90
20442;DHT22;10380;52.102;20.614;2022-09-09T10:22:45;17.90;99.90
20442;DHT22;10380;52.102;20.614;2022-09-09T10:33:49;17.60;99.90
20442;DHT22;10380;52.102;20.614;2022-09-09T10:36:24;17.50;99.90
20442;DHT22;10380;52.102;20.614;2022-09-09T10:39:01;17.50;99.90
20442;DHT22;10380;52.102;20.614;2022-09-09T10:44:34;17.60;99.90
20442;DHT22;10380;52.102;20.614;2022-09-09T10:55:33;17.70;99.90
20442;DHT22;10380;52.102;20.614;2022-09-09T10:58:04;17.80;99.90
20442;DHT22;10380;52.102;20.614;2022-09-09T11:00:43;17.80;99.90
20442;DHT22;10380;52.102;20.614;2022-09-09T11:03:20;17.80;99.90
20442;DHT22;10380;52.102;20.614;2022-09-09T11:05:57;17.80;99.90
20442;DHT22;10380;52.102;20.614;2022-09-09T11:08:28;17.80;99.90
20442;DHT22;10380;52.102;20.614;2022-09-09T11:11:03;17.90;99.90
20442;DHT22;10380;52.102;20.614;2022-09-09T11:13:53;17.90;99.90
20442;DHT22;10380;52.102;20.614;2022-09-09T11:21:46;17.90;99.90
20442;DHT22;10380;52.102;20.614;2022-09-09T11:33:19;17.90;99.90
20442;DHT22;10380;52.102;20.614;2022-09-09T11:36:24;18.00;99.90
20442;DHT22;10380;52.102;20.614;2022-09-09T11:41:36;18.00;99.90
20442;DHT22;10380;52.102;20.614;2022-09-09T11:44:23;18.00;99.90
20442;DHT22;10380;52.102;20.614;2022-09-09T11:46:52;18.00;99.90
20442;DHT22;10380;52.102;20.614;2022-09-09T11:49:40;18.00;99.90
20442;DHT22;10380;52.102;20.614;2022-09-09T11:52:23;18.10;99.90
20442;DHT22;10380;52.102;20.614;2022-09-09T11:54:55;18.10;99.90
20442;DHT22;10380;52.102;20.614;2022-09-09T11:57:31;18.10;99.90
20442;DHT22;10380;52.102;20.614;2022-09-09T11:59:58;18.00;99.90
20442;DHT22;10380;52.102;20.614;2022-09-09T12:02:28;18.00;99.90
20442;DHT22;10380;52.102;20.614;2022-09-09T12:05:07;18.10;99.90
20442;DHT22;10380;52.102;20.614;2022-09-09T12:07:41;18.20;99.90
20442;DHT22;10380;52.102;20.614;2022-09-09T12:10:40;18.30;99.90
20442;DHT22;10380;52.102;20.614;2022-09-09T12:13:16;18.50;99.90
20442;DHT22;10380;52.102;20.614;2022-09-09T12:16:06;18.70;99.90
20442;DHT22;10380;52.102;20.614;2022-09-09T12:18:39;18.90;99.90
20442;DHT22;10380;52.102;20.614;2022-09-09T12:21:36;19.00;99.90
20442;DHT22;10380;52.102;20.614;2022-09-09T12:24:16;19.10;99.90
20442;DHT22;10380;52.102;20.614;2022-09-09T12:27:15;19.20;99.90
20442;DHT22;10380;52.102;20.614;2022-09-09T12:29:58;19.20;99.90
20442;DHT22;10380;52.102;20.614;2022-09-09T12:32:29;19.30;99.90
20442;DHT22;10380;52.102;20.614;2022-09-09T12:35:03;19.40;99.90
20442;DHT22;10380;52.102;20.614;2022-09-09T12:37:45;19.50;99.90
20442;DHT22;10380;52.102;20.614;2022-09-09T12:40:33;19.60;99.90
20442;DHT22;10380;52.102;20.614;2022-09-09T12:43:20;19.70;99.90
20442;DHT22;10380;52.102;20.614;2022-09-09T12:45:49;19.80;99.90
20442;DHT22;10380;52.102;20.614;2022-09-09T12:48:29;19.80;99.90
20442;DHT22;10380;52.102;20.614;2022-09-09T12:50:58;19.90;99.90
20442;DHT22;10380;52.102;20.614;2022-09-09T12:53:30;19.90;99.90
20442;DHT22;10380;52.102;20.614;2022-09-09T12:56:04;20.00;99.90
20442;DHT22;10380;52.102;20.614;2022-09-09T12:58:31;20.10;99.90
20442;DHT22;10380;52.102;20.614;2022-09-09T13:01:01;20.10;99.90
20442;DHT22;10380;52.102;20.614;2022-09-09T13:03:33;20.10;99.90
20442;DHT22;10380;52.102;20.614;2022-09-09T13:06:21;20.10;99.90
20442;DHT22;10380;52.102;20.614;2022-09-09T13:08:56;20.20;99.90
20442;DHT22;10380;52.102;20.614;2022-09-09T13:11:46;20.30;99.90
20442;DHT22;10380;52.102;20.614;2022-09-09T13:14:33;20.50;99.90
20442;DHT22;10380;52.102;20.614;2022-09-09T13:17:03;20.60;99.90
20442;DHT22;10380;52.102;20.614;2022-09-09T13:19:35;20.70;99.90
20442;DHT22;10380;52.102;20.614;2022-09-09T13:22:21;20.90;99.90
20442;DHT22;10380;52.102;20.614;2022-09-09T13:25:04;21.00;99.90
20442;DHT22;10380;52.102;20.614;2022-09-09T13:27:37;21.20;99.90
20442;DHT22;10380;52.102;20.614;2022-09-09T13:35:29;21.30;99.90
20442;DHT22;10380;52.102;20.614;2022-09-09T13:37:58;21.30;99.90
20442;DHT22;10380;52.102;20.614;2022-09-09T13:40:26;21.20;99.90
20442;DHT22;10380;52.102;20.614;2022-09-09T13:42:56;21.00;99.90
20442;DHT22;10380;52.102;20.614;2022-09-09T13:45:26;21.00;99.90
20442;DHT22;10380;52.102;20.614;2022-09-09T13:47:54;20.80;99.90
20442;DHT22;10380;52.102;20.614;2022-09-09T13:50:29;20.60;99.90
20442;DHT22;10380;52.102;20.614;2022-09-09T13:53:01;20.50;99.90
20442;DHT22;10380;52.102;20.614;2022-09-09T13:55:36;20.40;99.90
20442;DHT22;10380;52.102;20.614;2022-09-09T13:58:04;20.30;99.90
20442;DHT22;10380;52.102;20.614;2022-09-09T14:00:34;20.20;99.90
20442;DHT22;10380;52.102;20.614;2022-09-09T14:03:01;20.10;99.90
20442;DHT22;10380;52.102;20.614;2022-09-09T14:05:31;20.00;99.90
20442;DHT22;10380;52.102;20.614;2022-09-09T14:08:02;19.90;99.90
20442;DHT22;10380;52.102;20.614;2022-09-09T14:10:33;19.90;99.90
20442;DHT22;10380;52.102;20.614;2022-09-09T14:13:03;20.00;99.90
20442;DHT22;10380;52.102;20.614;2022-09-09T14:15:30;20.40;99.90
20442;DHT22;10380;52.102;20.614;2022-09-09T14:17:57;20.80;99.90
20442;DHT22;10380;52.102;20.614;2022-09-09T14:20:25;21.20;99.90
20442;DHT22;10380;52.102;20.614;2022-09-09T14:22:52;21.60;99.90
20442;DHT22;10380;52.102;20.614;2022-09-09T14:25:20;22.00;99.90
20442;DHT22;10380;52.102;20.614;2022-09-09T14:27:47;22.30;99.90
20442;DHT22;10380;52.102;20.614;2022-09-09T14:30:15;22.50;99.90
20442;DHT22;10380;52.102;20.614;2022-09-09T14:32:42;22.60;99.90
20442;DHT22;10380;52.102;20.614;2022-09-09T14:35:09;22.80;99.90
20442;DHT22;10380;52.102;20.614;2022-09-09T14:37:37;23.00;99.90
20442;DHT22;10380;52.102;20.614;2022-09-09T14:40:07;23.20;99.90
20442;DHT22;10380;52.102;20.614;2022-09-09T14:42:35;23.50;99.90
20442;DHT22;10380;52.102;20.614;2022-09-09T14:45:02;23.50;99.90
20442;DHT22;10380;52.102;20.614;2022-09-09T14:47:31;23.60;99.90
20442;DHT22;10380;52.102;20.614;2022-09-09T14:49:58;23.60;99.90
20442;DHT22;10380;52.102;20.614;2022-09-09T14:52:27;23.80;99.90
20442;DHT22;10380;52.102;20.614;2022-09-09T14:54:59;23.90;99.90
20442;DHT22;10380;52.102;20.614;2022-09-09T14:57:26;24.00;99.90
20442;DHT22;10380;52.102;20.614;2022-09-09T14:59:53;24.00;99.90
20442;DHT22;10380;52.102;20.614;2022-09-09T15:02:20;24.00;99.90
20442;DHT22;10380;52.102;20.614;2022-09-09T15:04:47;24.10;99.90
20442;DHT22;10380;52.102;20.614;2022-09-09T15:07:17;24.40;99.90
20442;DHT22;10380;52.102;20.614;2022-09-09T15:09:47;24.70;99.90
20442;DHT22;10380;52.102;20.614;2022-09-09T15:12:15;25.10;99.90
20442;DHT22;10380;52.102;20.614;2022-09-09T15:14:46;25.50;99.90
20442;DHT22;10380;52.102;20.614;2022-09-09T15:17:13;25.80;99.90
20442;DHT22;10380;52.102;20.614;2022-09-09T15:19:42;25.80;99.90
20442;DHT22;10380;52.102;20.614;2022-09-09T15:22:09;25.60;99.90
20442;DHT22;10380;52.102;20.614;2022-09-09T15:24:40;25.30;99.90
20442;DHT22;10380;52.102;20.614;2022-09-09T15:27:07;24.70;99.90
20442;DHT22;10380;52.102;20.614;2022-09-09T15:29:34;24.20;99.90
20442;DHT22;10380;52.102;20.614;2022-09-09T15:32:01;23.80;99.90
20442;DHT22;10380;52.102;20.614;2022-09-09T15:34:28;23.60;99.90
20442;DHT22;10380;52.102;20.614;2022-09-09T15:36:55;23.50;99.90
20442;DHT22;10380;52.102;20.614;2022-09-09T15:39:22;23.40;99.90
20442;DHT22;10380;52.102;20.614;2022-09-09T15:41:50;23.50;99.90
20442;DHT22;10380;52.102;20.614;2022-09-09T15:44:19;23.60;99.90
20442;DHT22;10380;52.102;20.614;2022-09-09T15:46:50;23.60;99.90
20442;DHT22;10380;52.102;20.614;2022-09-09T15:51:51;23.60;99.90
20442;DHT22;10380;52.102;20.614;2022-09-09T15:54:21;23.50;99.90
20442;DHT22;10380;52.102;20.614;2022-09-09T15:56:55;23.30;99.90
20442;DHT22;10380;52.102;20.614;2022-09-09T15:59:25;23.00;99.90
20442;DHT22;10380;52.102;20.614;2022-09-09T16:01:53;22.70;99.90
20442;DHT22;10380;52.102;20.614;2022-09-09T16:04:23;22.40;99.90
20442;DHT22;10380;52.102;20.614;2022-09-09T16:06:55;22.10;99.90
20442;DHT22;10380;52.102;20.614;2022-09-09T16:09:22;21.80;99.90
20442;DHT22;10380;52.102;20.614;2022-09-09T16:11:49;21.50;99.90
20442;DHT22;10380;52.102;20.614;2022-09-09T16:14:16;21.20;99.90
20442;DHT22;10380;52.102;20.614;2022-09-09T16:16:44;20.90;99.90
20442;DHT22;10380;52.102;20.614;2022-09-09T16:19:12;20.60;99.90
20442;DHT22;10380;52.102;20.614;2022-09-09T16:21:45;20.30;99.90
20442;DHT22;10380;52.102;20.614;2022-09-09T16:24:15;20.00;99.90
20442;DHT22;10380;52.102;20.614;2022-09-09T16:26:45;19.80;99.90
20442;DHT22;10380;52.102;20.614;2022-09-09T16:29:13;19.50;99.90
20442;DHT22;10380;52.102;20.614;2022-09-09T16:31:42;19.30;99.90
20442;DHT22;10380;52.102;20.614;2022-09-09T16:34:10;19.10;99.90
20442;DHT22;10380;52.102;20.614;2022-09-09T16:36:39;19.00;99.90
20442;DHT22;10380;52.102;20.614;2022-09-09T16:39:15;18.80;99.90
20442;DHT22;10380;52.102;20.614;2022-09-09T16:41:44;18.60;99.90
20442;DHT22;10380;52.102;20.614;2022-09-09T16:44:13;18.40;99.90
20442;DHT22;10380;52.102;20.614;2022-09-09T16:46:43;18.20;99.90
20442;DHT22;10380;52.102;20.614;2022-09-09T16:49:13;18.10;99.90
20442;DHT22;10380;52.102;20.614;2022-09-09T16:51:44;17.90;99.90
20442;DHT22;10380;52.102;20.614;2022-09-09T16:54:11;17.80;99.90
20442;DHT22;10380;52.102;20.614;2022-09-09T16:56:42;17.60;99.90
20442;DHT22;10380;52.102;20.614;2022-09-09T16:59:17;17.50;99.90
20442;DHT22;10380;52.102;20.614;2022-09-09T17:01:46;17.40;99.90
20442;DHT22;10380;52.102;20.614;2022-09-09T17:04:16;17.30;99.90
20442;DHT22;10380;52.102;20.614;2022-09-09T17:06:48;17.20;99.90
20442;DHT22;10380;52.102;20.614;2022-09-09T17:09:19;17.10;99.90
20442;DHT22;10380;52.102;20.614;2022-09-09T17:11:47;17.00;99.90
20442;DHT22;10380;52.102;20.614;2022-09-09T17:14:16;16.90;99.90
20442;DHT22;10380;52.102;20.614;2022-09-09T17:16:45;16.90;99.90
20442;DHT22;10380;52.102;20.614;2022-09-09T17:19:12;16.80;99.90
20442;DHT22;10380;52.102;20.614;2022-09-09T17:21:39;16.80;99.90
20442;DHT22;10380;52.102;20.614;2022-09-09T17:24:29;16.70;99.90
20442;DHT22;10380;52.102;20.614;2022-09-09T17:26:56;16.70;99.90
20442;DHT22;10380;52.102;20.614;2022-09-09T17:29:24;16.60;99.90
20442;DHT22;10380;52.102;20.614;2022-09-09T17:31:52;16.60;99.90
20442;DHT22;10380;52.102;20.614;2022-09-09T17:34:19;16.60;99.90
20442;DHT22;10380;52.102;20.614;2022-09-09T17:36:46;16.60;99.90
20442;DHT22;10380;52.102;20.614;2022-09-09T17:39:14;16.60;99.90
20442;DHT22;10380;52.102;20.614;2022-09-09T17:41:42;16.50;99.90
20442;DHT22;10380;52.102;20.614;2022-09-09T17:44:09;16.50;99.90
20442;DHT22;10380;52.102;20.614;2022-09-09T17:46:42;16.50;99.90
20442;DHT22;10380;52.102;20.614;2022-09-09T17:49:14;16.50;99.90
20442;DHT22;10380;52.102;20.614;2022-09-09T17:51:42;16.50;99.90
20442;DHT22;10380;52.102;20.614;2022-09-09T17:54:15;16.50;99.90
20442;DHT22;10380;52.102;20.614;2022-09-09T17:56:43;16.40;99.90
20442;DHT22;10380;52.102;20.614;2022-09-09T17:59:11;16.40;99.90